createdAt,value
2023-07-31T00:03:38.364Z,9.30
2023-07-31T00:08:39.840Z,11.95
2023-07-31T00:13:41.364Z,5.53
2023-07-31T00:18:42.779Z,5.32
2023-07-31T00:23:44.192Z,5.70
2023-07-31T00:28:45.653Z,6.07
2023-07-31T00:33:47.117Z,5.90
2023-07-31T00:38:48.544Z,6.68
2023-07-31T00:43:50.078Z,5.60
2023-07-31T00:48:51.731Z,6.88
2023-07-31T00:53:53.959Z,6.60
2023-07-31T00:58:56.373Z,5.45
2023-07-31T01:03:57.872Z,11.48
2023-07-31T01:09:11.203Z,4.78
2023-07-31T01:14:12.626Z,4.68
2023-07-31T01:19:15.767Z,4.57
2023-07-31T01:24:23.045Z,5.80
2023-07-31T01:29:34.895Z,4.25
2023-07-31T01:34:37.642Z,4.00
2023-07-31T01:39:39.061Z,5.55
2023-07-31T01:44:40.532Z,6.05
2023-07-31T01:49:42.014Z,4.13
2023-07-31T01:54:43.444Z,5.07
2023-07-31T01:59:44.872Z,4.70
2023-07-31T02:04:46.674Z,6.10
2023-07-31T02:09:48.145Z,3.83
2023-07-31T02:14:49.558Z,4.32
2023-07-31T02:19:51.032Z,5.13
2023-07-31T02:24:52.527Z,4.07
2023-07-31T02:29:54.184Z,4.63
2023-07-31T02:34:55.642Z,11.88
2023-07-31T02:39:57.085Z,5.45
2023-07-31T02:44:58.574Z,5.45
2023-07-31T02:50:00.011Z,4.35
2023-07-31T02:55:01.434Z,4.65
2023-07-31T03:00:03.081Z,5.03
2023-07-31T03:05:04.700Z,5.97
2023-07-31T03:10:06.735Z,5.57
2023-07-31T03:15:08.827Z,7.07
2023-07-31T03:20:10.765Z,5.50
2023-07-31T03:25:12.200Z,6.07
2023-07-31T03:30:13.647Z,5.10
2023-07-31T03:35:15.072Z,5.93
2023-07-31T03:40:16.522Z,5.82
2023-07-31T03:45:17.999Z,5.57
2023-07-31T03:50:19.466Z,4.50
2023-07-31T03:55:22.784Z,4.18
2023-07-31T04:00:24.358Z,5.10
2023-07-31T04:05:25.863Z,3.95
2023-07-31T04:10:27.361Z,4.53
2023-07-31T04:15:28.802Z,5.68
2023-07-31T04:20:30.225Z,5.70
2023-07-31T04:25:31.677Z,2.88
2023-07-31T04:30:33.093Z,2.08
2023-07-31T04:35:34.543Z,2.42
2023-07-31T04:40:35.990Z,1.58
2023-07-31T04:45:37.469Z,1.15
2023-07-31T04:50:38.876Z,1.75
2023-07-31T04:55:40.337Z,4.03
2023-07-31T05:00:41.774Z,1.25
2023-07-31T05:05:43.252Z,2.92
2023-07-31T05:10:45.025Z,1.13
2023-07-31T05:15:46.621Z,1.63
2023-07-31T05:20:48.055Z,1.60
2023-07-31T05:25:49.529Z,1.25
2023-07-31T05:30:50.998Z,1.42
2023-07-31T05:35:52.418Z,2.60
2023-07-31T05:40:53.903Z,4.28
2023-07-31T05:45:55.435Z,1.92
2023-07-31T05:50:57.068Z,2.92
2023-07-31T05:56:31.798Z,2.80
2023-07-31T06:01:33.326Z,5.78
2023-07-31T06:06:36.025Z,1.95
2023-07-31T06:11:37.432Z,2.90
2023-07-31T06:16:39.218Z,2.40
2023-07-31T06:21:40.964Z,1.55
2023-07-31T06:26:42.648Z,3.53
2023-07-31T06:31:44.508Z,2.45
2023-07-31T06:36:46.052Z,5.35
2023-07-31T06:41:47.509Z,2.00
2023-07-31T06:46:49.452Z,3.75
2023-07-31T06:51:51.119Z,3.95
2023-07-31T06:56:52.602Z,2.00
2023-07-31T07:01:54.152Z,1.80
2023-07-31T07:06:55.563Z,1.48
2023-07-31T07:11:57.025Z,2.20
2023-07-31T07:16:58.629Z,4.82
2023-07-31T07:22:00.103Z,5.97
2023-07-31T07:27:01.792Z,9.43
2023-07-31T07:32:03.282Z,9.77
2023-07-31T07:37:04.937Z,13.02
2023-07-31T07:42:06.435Z,13.63
2023-07-31T07:47:07.978Z,15.15
2023-07-31T07:52:09.398Z,15.15
2023-07-31T07:57:10.834Z,17.92
2023-07-31T08:02:12.285Z,17.60
2023-07-31T08:07:13.968Z,16.95
2023-07-31T08:12:15.399Z,23.60
2023-07-31T08:17:16.834Z,19.90
2023-07-31T08:22:18.417Z,26.02
2023-07-31T08:27:19.881Z,29.15
2023-07-31T08:32:21.318Z,17.00
2023-07-31T08:37:22.737Z,16.10
2023-07-31T08:42:24.233Z,23.23
2023-07-31T08:47:28.426Z,17.48
2023-07-31T08:52:29.926Z,18.13
2023-07-31T08:57:31.852Z,19.80
2023-07-31T09:02:46.194Z,16.33
2023-07-31T09:07:49.150Z,16.55
2023-07-31T09:12:53.098Z,12.52
2023-07-31T09:18:01.963Z,15.18
2023-07-31T09:23:10.218Z,14.52
2023-07-31T09:28:12.631Z,11.38
2023-07-31T09:33:14.664Z,13.50
2023-07-31T09:38:17.004Z,9.63
2023-07-31T09:43:22.765Z,11.27
2023-07-31T09:48:25.078Z,9.90
2023-07-31T09:53:30.552Z,9.95
2023-07-31T09:58:36.032Z,9.10
2023-07-31T10:03:38.794Z,6.60
2023-07-31T10:08:41.123Z,6.55
2023-07-31T10:13:43.188Z,7.40
2023-07-31T10:18:45.915Z,7.10
2023-07-31T10:23:48.420Z,4.45
2023-07-31T10:28:51.840Z,3.80
2023-07-31T10:33:54.904Z,6.35
2023-07-31T10:38:59.154Z,5.47
2023-07-31T10:44:01.971Z,4.40
2023-07-31T10:49:04.275Z,4.07
2023-07-31T10:54:13.375Z,4.30
2023-07-31T10:59:15.024Z,1.58
2023-07-31T11:04:23.372Z,2.58
2023-07-31T11:09:28.937Z,1.80
2023-07-31T11:14:30.711Z,2.03
2023-07-31T11:19:32.203Z,2.22
2023-07-31T11:24:33.690Z,4.85
2023-07-31T11:29:35.199Z,1.50
2023-07-31T11:34:52.463Z,1.17
2023-07-31T11:40:01.194Z,9.57
2023-07-31T11:45:06.644Z,0.80
2023-07-31T11:50:12.030Z,3.25
2023-07-31T11:55:14.383Z,0.95
2023-07-31T12:00:19.859Z,0.73
2023-07-31T12:05:23.208Z,1.35
2023-07-31T12:10:33.077Z,1.35
2023-07-31T12:15:40.193Z,1.85
2023-07-31T12:20:47.024Z,0.98
2023-07-31T12:25:48.542Z,1.80
2023-07-31T12:30:50.006Z,2.90
2023-07-31T12:35:52.707Z,2.13
2023-07-31T12:40:54.130Z,2.47
2023-07-31T12:45:56.342Z,4.55
2023-07-31T12:50:58.307Z,2.25
2023-07-31T12:56:00.120Z,1.63
2023-07-31T13:01:01.568Z,2.58
2023-07-31T13:06:03.081Z,2.65
2023-07-31T13:11:04.489Z,3.63
2023-07-31T13:16:06.218Z,5.43
2023-07-31T13:21:07.700Z,7.68
2023-07-31T13:26:09.106Z,4.25
2023-07-31T13:31:10.627Z,6.22
2023-07-31T13:36:12.097Z,6.13
2023-07-31T13:41:13.612Z,5.22
2023-07-31T13:46:15.149Z,6.47
2023-07-31T13:51:17.109Z,6.95
2023-07-31T13:56:18.606Z,9.55
2023-07-31T14:01:20.139Z,8.43
2023-07-31T14:06:21.659Z,10.70
2023-07-31T14:11:23.841Z,8.38
2023-07-31T14:16:25.450Z,10.23
2023-07-31T14:21:27.212Z,17.10
2023-07-31T14:26:28.856Z,9.25
2023-07-31T14:31:30.959Z,7.47
2023-07-31T14:36:32.618Z,9.38
2023-07-31T14:41:34.218Z,7.85
2023-07-31T14:46:35.807Z,6.97
2023-07-31T14:51:37.349Z,8.30
2023-07-31T14:56:39.245Z,10.38
2023-07-31T15:01:40.951Z,7.43
2023-07-31T15:06:42.755Z,7.53
2023-07-31T15:11:44.685Z,9.02
2023-07-31T15:16:46.901Z,8.10
2023-07-31T15:21:48.447Z,11.00
2023-07-31T15:26:49.896Z,6.55
2023-07-31T15:31:53.921Z,8.52
2023-07-31T15:36:55.441Z,5.38
2023-07-31T15:41:57.138Z,6.85
2023-07-31T15:46:58.567Z,9.60
2023-07-31T15:52:00.959Z,10.55
2023-07-31T15:57:02.495Z,7.47
2023-07-31T16:02:04.275Z,13.90
2023-07-31T16:07:06.073Z,7.60
2023-07-31T16:12:07.800Z,7.80
2023-07-31T16:17:09.291Z,5.30
2023-07-31T16:22:10.793Z,6.32
2023-07-31T16:27:12.215Z,7.47
2023-07-31T16:32:13.661Z,6.00
2023-07-31T16:37:15.601Z,5.55
2023-07-31T16:42:17.033Z,5.35
2023-07-31T16:47:18.829Z,9.40
2023-07-31T16:52:20.751Z,9.93
2023-07-31T16:57:24.443Z,8.70
2023-07-31T17:02:26.515Z,8.95
2023-07-31T17:07:28.652Z,8.45
2023-07-31T17:12:30.058Z,6.97
2023-07-31T17:17:31.698Z,10.82
2023-07-31T17:22:46.589Z,8.98
2023-07-31T17:27:52.264Z,9.32
2023-07-31T17:32:54.994Z,11.45
2023-07-31T17:37:58.186Z,9.73
2023-07-31T17:43:00.779Z,10.40
2023-07-31T17:48:02.442Z,11.00
2023-07-31T17:53:05.867Z,15.18
2023-07-31T17:58:09.040Z,8.23
2023-07-31T18:03:10.552Z,8.20
2023-07-31T18:08:12.056Z,9.05
2023-07-31T18:13:15.675Z,7.97
2023-07-31T18:18:17.117Z,8.00
2023-07-31T18:23:18.553Z,8.13
2023-07-31T18:28:20.013Z,7.75
2023-07-31T18:33:21.410Z,8.82
2023-07-31T18:38:22.848Z,6.03
2023-07-31T18:43:24.288Z,4.65
2023-07-31T18:48:25.716Z,6.15
2023-07-31T18:53:27.447Z,6.13
2023-07-31T18:58:28.860Z,3.78
2023-07-31T19:03:30.718Z,4.82
2023-07-31T19:08:32.642Z,3.10
2023-07-31T19:13:34.099Z,3.72
2023-07-31T19:18:35.711Z,3.97
2023-07-31T19:23:37.776Z,4.55
2023-07-31T19:28:39.185Z,4.30
2023-07-31T19:33:40.624Z,26.05
2023-07-31T19:38:42.025Z,2.13
2023-07-31T19:43:43.417Z,6.50
2023-07-31T19:48:45.019Z,3.05
2023-07-31T19:53:47.091Z,2.10
2023-07-31T19:58:48.487Z,1.55
2023-07-31T20:03:50.692Z,1.55
2023-07-31T20:08:52.121Z,3.70
2023-07-31T20:13:53.598Z,2.35
2023-07-31T20:18:54.991Z,4.03
2023-07-31T20:23:56.513Z,6.40
2023-07-31T20:28:57.923Z,3.00
2023-07-31T20:33:59.358Z,5.38
2023-07-31T20:39:01.090Z,4.55
2023-07-31T20:44:03.417Z,3.03
2023-07-31T20:49:04.855Z,2.53
2023-07-31T20:54:06.602Z,2.70
2023-07-31T20:59:08.128Z,3.38
2023-07-31T21:04:09.713Z,3.50
2023-07-31T21:09:11.216Z,3.45
2023-07-31T21:14:12.671Z,3.83
2023-07-31T21:19:14.248Z,3.20
2023-07-31T21:24:15.729Z,3.00
2023-07-31T21:29:17.230Z,1.92
2023-07-31T21:34:18.675Z,3.58
2023-07-31T21:39:20.334Z,2.70
2023-07-31T21:44:21.822Z,1.52
2023-07-31T21:49:23.277Z,4.35
2023-07-31T21:54:24.992Z,3.42
2023-07-31T21:59:26.472Z,2.05
2023-07-31T22:04:28.340Z,6.88
2023-07-31T22:09:29.860Z,3.55
2023-07-31T22:14:31.393Z,2.95
2023-07-31T22:19:32.852Z,3.75
2023-07-31T22:24:34.388Z,4.35
2023-07-31T22:29:35.856Z,6.78
2023-07-31T22:34:37.334Z,6.43
2023-07-31T22:39:41.713Z,5.55
2023-07-31T22:44:43.210Z,6.30
2023-07-31T22:49:44.653Z,10.52
2023-07-31T22:54:46.210Z,7.10
2023-07-31T22:59:47.635Z,8.30
2023-07-31T23:04:49.085Z,7.95
2023-07-31T23:09:50.540Z,8.68
2023-07-31T23:14:53.190Z,9.13
2023-07-31T23:19:54.725Z,9.77
2023-07-31T23:24:56.322Z,8.73
2023-07-31T23:29:57.783Z,8.73
2023-07-31T23:34:59.526Z,8.15
2023-07-31T23:40:01.035Z,14.43
2023-07-31T23:45:10.771Z,9.57
2023-07-31T23:50:13.136Z,10.57
2023-07-31T23:55:15.127Z,11.35
